New Prague, MN

10:38 AM CDT on May 06, 2015 (GMT -0500)
Flying Cloud | | Change Station
CLOSE
Current Station
Airport
Location: Minneapolis Flying Cloud,
Elevation: 906 ft
Nearby Weather Stations

Elev 906 ft 44.83 °N, 93.46 °W | Updated 45 minutes ago

Overcast
Overcast
58 °F
Feels Like 58 °F
N
9
Wind Variable Wind from ESE

Today
High -- | Low -- °F
--% Chance of Precip.
Yesterday
High -- | Low -- °F
Precip. -- in
5:57 AM 8:24 PM
Waning Gibbous, 93% visible
Pressure 30.04 in
Visibility 3.0 miles
Clouds Overcast 500 ft
Dew Point 55 °F
Humidity 90%
Rainfall 0.00 in
Snow Depth Not available.
UV 2 out of 12
Pollen 5.70 out of 12
Air Quality Not available.
Flu Activity Sporadic
METAR KFCM 061453Z 11008KT 3SM BR OVC005 14/13 A3003 RMK AO2 SLP171 T01440128 58008

More Conditions Fewer Conditions

Pressure 30.04 in
Visibility 3.0 miles
Clouds Overcast 500 ft
Dew Point 55 °F
Humidity 90%
Rainfall 0.00 in
Snow Depth Not available.
UV 2 out of 12
Pollen 5.70 out of 12
Air Quality Not available.
Flu Activity Sporadic
METAR KFCM 061453Z 11008KT 3SM BR OVC005 14/13 A3003 RMK AO2 SLP171 T01440128 58008

More Conditions Fewer Conditions

10-Day Weather Forecast

Almanac

Astronomy

May. 06, 2015 Rise Set
Actual Time
Civil Twilight
Nautical Twilight
Astronomical Twilight
Moon
Length of Visible Light
Length of Day
Tomorrow will be .
, % of the Moon is Illuminated

Today's Extremes

State Highs State Lows

Community

WunderPhotos

Upload Photos

1,818,933 photos uploaded!

WunderBlogs® & News

Nearby

Air Quality

  Air Quality AQ Index Pollutant
Not available.

Snow Depth

Station Depth Elevation

Earthquake Activity

City Distance Mag. Time & Date
Minimum magnitude displayed is 2.5.

Coastal Water Temperatures

Place Temperature

Stations

Nearby Weather Stations

Station Location Temp. Windchill Dew Point Humidity Wind Precip. Elev Updated Type